Time;durP1;ratioP1;P1;durP2;ratioP2;P2;SDS_P1;SDS_P2;PMS_P1;PMS_P2;Temp;Humidity;BMP_temperature;BMP_pressure;BME280_temperature;BME280_humidity;BME280_pressure;Samples;Min_cycle;Max_cycle;Signal;HPM_P1;HPM_P2
2024/02/06 00:02:11;;;;;;;;;;;;;;;;;;5030062;28;19965;-67
2024/02/06 00:04:37;;;;;;;;;;;;;;;;;;5030133;28;20007;-67
2024/02/06 00:07:05;;;;;;;;;;;;;;;;;;5032940;28;20004;-67
2024/02/06 00:09:31;;;;;;;;;;;;;;;;;;5032856;28;19948;-66
2024/02/06 00:11:56;;;;;;;;;;;;;;;;;;5031895;28;19921;-67
2024/02/06 00:14:22;;;;;;;;;;;;;;;;;;5028341;28;19971;-66
2024/02/06 00:16:48;;;;;;;;;;;;;;;;;;5031388;28;20272;-66
2024/02/06 00:19:14;;;;;;;;;;;;;;;;;;5031502;28;19921;-66
2024/02/06 00:21:40;;;;;;;;;;;;;;;;;;5032152;28;19925;-67
2024/02/06 00:24:06;;;;;;;;;;;;;;;;;;5031243;28;19955;-67
2024/02/06 00:26:32;;;;;;;;;;;;;;;;;;5013613;28;20283;-67
2024/02/06 00:28:58;;;;;;;;;;;;;;;;;;5013648;28;19921;-67
2024/02/06 00:31:24;;;;;;;;;;;;;;;;;;5030229;28;19921;-67
2024/02/06 00:33:50;;;;;;;;;;;;;;;;;;5028403;28;19929;-66
2024/02/06 00:36:15;;;;;;;;;;;;;;;;;;5033190;28;20393;-67
2024/02/06 00:38:41;;;;;;;;;;;;;;;;;;5031744;28;19932;-67
2024/02/06 00:41:08;;;;;;;;;;;;;;;;;;5029624;28;19932;-67
2024/02/06 00:43:34;;;;;;;;;;;;;;;;;;5031667;28;19925;-67
2024/02/06 00:46:00;;;;;;;;;;;;;;;;;;5011690;28;20363;-67
2024/02/06 00:48:26;;;;;;;;;;;;;;;;;;5013956;28;19928;-67
2024/02/06 00:50:52;;;;;;;;;;;;;;;;;;5031281;28;19932;-67
2024/02/06 00:53:18;;;;;;;;;;;;;;;;;;5031823;28;20385;-67
2024/02/06 00:55:44;;;;;;;;;;;;;;;;;;5029123;28;19921;-66
2024/02/06 00:58:10;;;;;;;;;;;;;;;;;;5031810;28;19921;-68
2024/02/06 01:00:35;;;;;;;;;;;;;;;;;;5031488;28;20358;-66
2024/02/06 01:03:01;;;;;;;;;;;;;;;;;;5032875;28;19980;-66
2024/02/06 01:05:27;;;;;;;;;;;;;;;;;;5031449;28;20278;-67
2024/02/06 01:07:53;;;;;;;;;;;;;;;;;;5013617;28;20398;-67
2024/02/06 01:10:19;;;;;;;;;;;;;;;;;;5028578;28;19975;-67
2024/02/06 01:12:45;;;;;;;;;;;;;;;;;;5028686;28;20020;-67
2024/02/06 01:15:11;;;;;;;;;;;;;;;;;;5026901;28;20023;-67
2024/02/06 01:17:37;;;;;;;;;;;;;;;;;;5029744;28;19975;-66
2024/02/06 01:20:03;;;;;;;;;;;;;;;;;;5031039;28;19933;-66
2024/02/06 01:22:29;;;;;;;;;;;;;;;;;;5030498;28;20341;-67
2024/02/06 01:24:55;;;;;;;;;;;;;;;;;;5031058;28;19979;-67
2024/02/06 01:27:21;;;;;;;;;;;;;;;;;;5023854;28;20692;-67
2024/02/06 01:29:47;;;;;;;;;;;;;;;;;;5031929;28;19925;-67
2024/02/06 01:32:13;;;;;;;;;;;;;;;;;;5012599;28;19979;-67
2024/02/06 01:34:39;;;;;;;;;;;;;;;;;;5028773;28;19921;-67
2024/02/06 01:37:04;;;;;;;;;;;;;;;;;;5027934;28;19949;-67
2024/02/06 01:39:31;;;;;;;;;;;;;;;;;;5015989;28;20363;-67
2024/02/06 01:41:57;;;;;;;;;;;;;;;;;;5027856;28;20019;-67
2024/02/06 01:44:24;;;;;;;;;;;;;;;;;;5028436;28;20430;-67
2024/02/06 01:46:50;;;;;;;;;;;;;;;;;;5027996;28;19921;-67
2024/02/06 01:49:16;;;;;;;;;;;;;;;;;;5030515;28;19921;-66
2024/02/06 01:51:42;;;;;;;;;;;;;;;;;;5029855;28;19925;-67
2024/02/06 01:54:08;;;;;;;;;;;;;;;;;;5029834;28;20295;-67
2024/02/06 01:56:33;;;;;;;;;;;;;;;;;;5022634;28;19925;-67
2024/02/06 01:58:59;;;;;;;;;;;;;;;;;;5028532;28;20298;-68
2024/02/06 02:01:25;;;;;;;;;;;;;;;;;;5029106;28;19937;-67
2024/02/06 02:03:51;;;;;;;;;;;;;;;;;;5014047;28;19931;-66
2024/02/06 02:06:18;;;;;;;;;;;;;;;;;;5029981;28;19928;-67
2024/02/06 02:08:45;;;;;;;;;;;;;;;;;;5031693;28;19925;-67
2024/02/06 02:11:11;;;;;;;;;;;;;;;;;;5029455;28;19921;-67
2024/02/06 02:13:38;;;;;;;;;;;;;;;;;;5029516;28;19925;-67
2024/02/06 02:16:04;;;;;;;;;;;;;;;;;;5028684;28;19925;-67
2024/02/06 02:18:30;;;;;;;;;;;;;;;;;;5030282;28;19922;-66
2024/02/06 02:20:55;;;;;;;;;;;;;;;;;;5030059;28;20591;-67
2024/02/06 02:23:21;;;;;;;;;;;;;;;;;;5028934;28;20280;-67
2024/02/06 02:25:47;;;;;;;;;;;;;;;;;;5030273;28;19921;-67
2024/02/06 02:28:13;;;;;;;;;;;;;;;;;;5030496;28;19937;-66
2024/02/06 02:30:39;;;;;;;;;;;;;;;;;;5032368;28;19944;-67
2024/02/06 02:33:05;;;;;;;;;;;;;;;;;;5034698;28;19932;-66
2024/02/06 02:35:31;;;;;;;;;;;;;;;;;;5033555;28;19974;-67
2024/02/06 02:37:57;;;;;;;;;;;;;;;;;;5034660;28;20298;-66
2024/02/06 02:40:23;;;;;;;;;;;;;;;;;;5034754;28;20071;-67
2024/02/06 02:42:49;;;;;;;;;;;;;;;;;;5024989;28;20025;-66
2024/02/06 02:45:14;;;;;;;;;;;;;;;;;;5031287;28;20013;-68
2024/02/06 02:47:40;;;;;;;;;;;;;;;;;;5033836;28;20354;-66
2024/02/06 02:50:06;;;;;;;;;;;;;;;;;;5034144;28;20007;-67
2024/02/06 02:52:32;;;;;;;;;;;;;;;;;;5031857;28;19926;-66
2024/02/06 02:54:58;;;;;;;;;;;;;;;;;;5032793;28;20041;-66
2024/02/06 02:57:24;;;;;;;;;;;;;;;;;;5034143;28;20330;-66
2024/02/06 02:59:50;;;;;;;;;;;;;;;;;;5031679;28;20012;-66
2024/02/06 03:02:16;;;;;;;;;;;;;;;;;;5033634;28;20036;-66
2024/02/06 03:04:42;;;;;;;;;;;;;;;;;;5034553;28;20012;-67
2024/02/06 03:07:08;;;;;;;;;;;;;;;;;;5049359;28;20462;-66
2024/02/06 03:09:35;;;;;;;;;;;;;;;;;;5033429;28;20019;-67
2024/02/06 03:12:00;;;;;;;;;;;;;;;;;;5034050;28;19921;-66
2024/02/06 03:14:26;;;;;;;;;;;;;;;;;;5031453;28;19929;-66
2024/02/06 03:16:52;;;;;;;;;;;;;;;;;;5030771;28;19925;-67
2024/02/06 03:19:18;;;;;;;;;;;;;;;;;;5031842;28;19975;-66
2024/02/06 03:21:44;;;;;;;;;;;;;;;;;;5033500;28;19957;-66
2024/02/06 03:24:10;;;;;;;;;;;;;;;;;;5033341;28;19921;-66
2024/02/06 03:26:36;;;;;;;;;;;;;;;;;;5032335;28;19979;-67
2024/02/06 03:29:02;;;;;;;;;;;;;;;;;;5032679;28;19979;-66
2024/02/06 03:31:28;;;;;;;;;;;;;;;;;;5030314;28;20401;-66
2024/02/06 03:33:54;;;;;;;;;;;;;;;;;;5032980;28;19921;-67
2024/02/06 03:36:20;;;;;;;;;;;;;;;;;;5032269;28;19925;-67
2024/02/06 03:38:46;;;;;;;;;;;;;;;;;;5032997;28;20363;-67
2024/02/06 03:41:12;;;;;;;;;;;;;;;;;;5032630;28;19932;-67
2024/02/06 03:43:38;;;;;;;;;;;;;;;;;;5033231;28;19951;-66
2024/02/06 03:46:04;;;;;;;;;;;;;;;;;;5030446;28;19925;-66
2024/02/06 03:48:34;;;;;;;;;;;;;;;;;;5032710;28;20275;-67
2024/02/06 03:51:00;;;;;;;;;;;;;;;;;;5032707;28;20019;-68
2024/02/06 03:53:26;;;;;;;;;;;;;;;;;;5032850;28;20040;-68
2024/02/06 03:55:52;;;;;;;;;;;;;;;;;;5032871;28;20377;-68
2024/02/06 03:58:18;;;;;;;;;;;;;;;;;;5032388;28;19956;-67
2024/02/06 04:00:49;;;;;;;;;;;;;;;;;;5032051;28;19925;-66
2024/02/06 04:03:15;;;;;;;;;;;;;;;;;;5029599;28;19928;-66
2024/02/06 04:05:41;;;;;;;;;;;;;;;;;;5032791;28;20016;-68
2024/02/06 04:08:07;;;;;;;;;;;;;;;;;;5033585;28;19921;-66
2024/02/06 04:10:33;;;;;;;;;;;;;;;;;;5030304;28;19930;-67
2024/02/06 04:12:59;;;;;;;;;;;;;;;;;;5033125;28;19927;-66
2024/02/06 04:15:25;;;;;;;;;;;;;;;;;;5030393;28;20291;-66
2024/02/06 04:17:51;;;;;;;;;;;;;;;;;;5029829;28;19928;-67
2024/02/06 04:20:17;;;;;;;;;;;;;;;;;;5025809;28;19925;-66
2024/02/06 04:22:43;;;;;;;;;;;;;;;;;;5031069;28;19940;-66
2024/02/06 04:25:09;;;;;;;;;;;;;;;;;;5030741;28;20318;-66
2024/02/06 04:27:35;;;;;;;;;;;;;;;;;;5027494;28;19925;-66
2024/02/06 04:30:00;;;;;;;;;;;;;;;;;;5032433;28;19925;-66
2024/02/06 04:32:27;;;;;;;;;;;;;;;;;;5032474;28;19928;-67
2024/02/06 04:34:53;;;;;;;;;;;;;;;;;;5032253;28;19925;-66
2024/02/06 04:37:19;;;;;;;;;;;;;;;;;;5031809;28;19925;-66
2024/02/06 04:39:45;;;;;;;;;;;;;;;;;;5028617;28;20321;-66
2024/02/06 04:42:11;;;;;;;;;;;;;;;;;;5030833;28;19932;-67
2024/02/06 04:44:37;;;;;;;;;;;;;;;;;;5031961;28;19921;-67
2024/02/06 04:47:02;;;;;;;;;;;;;;;;;;5029253;28;19931;-66
2024/02/06 04:49:28;;;;;;;;;;;;;;;;;;5028718;28;20282;-66
2024/02/06 04:51:54;;;;;;;;;;;;;;;;;;5031093;28;19928;-66
2024/02/06 04:54:21;;;;;;;;;;;;;;;;;;5029215;28;19921;-67
2024/02/06 04:56:47;;;;;;;;;;;;;;;;;;5031562;28;19921;-67
2024/02/06 04:59:13;;;;;;;;;;;;;;;;;;5030623;28;19925;-66
2024/02/06 05:01:39;;;;;;;;;;;;;;;;;;5012856;28;19998;-66
2024/02/06 05:04:05;;;;;;;;;;;;;;;;;;5032404;28;19921;-66
2024/02/06 05:06:31;;;;;;;;;;;;;;;;;;5022795;28;20394;-66
2024/02/06 05:08:57;;;;;;;;;;;;;;;;;;5029221;28;19928;-67
2024/02/06 05:11:23;;;;;;;;;;;;;;;;;;5030913;28;19936;-66
2024/02/06 05:13:49;;;;;;;;;;;;;;;;;;5029950;28;20326;-67
2024/02/06 05:16:16;;;;;;;;;;;;;;;;;;5029781;28;19926;-67
2024/02/06 05:18:42;;;;;;;;;;;;;;;;;;5028903;28;19925;-66
2024/02/06 05:21:08;;;;;;;;;;;;;;;;;;5029531;28;20338;-66
2024/02/06 05:23:34;;;;;;;;;;;;;;;;;;5032053;28;19967;-66
2024/02/06 05:26:00;;;;;;;;;;;;;;;;;;5026675;28;19931;-66
2024/02/06 05:28:26;;;;;;;;;;;;;;;;;;5030642;28;19929;-67
2024/02/06 05:30:52;;;;;;;;;;;;;;;;;;5029576;28;19928;-67
2024/02/06 05:33:18;;;;;;;;;;;;;;;;;;5032482;28;19943;-66
2024/02/06 05:35:44;;;;;;;;;;;;;;;;;;5028409;28;19925;-66
2024/02/06 05:38:10;;;;;;;;;;;;;;;;;;5031618;28;19974;-67
2024/02/06 05:40:36;;;;;;;;;;;;;;;;;;5032933;22;20385;-64
2024/02/06 05:43:02;;;;;;;;;;;;;;;;;;5030625;28;20020;-64
2024/02/06 05:45:28;;;;;;;;;;;;;;;;;;5030989;28;20405;-63
2024/02/06 05:47:55;;;;;;;;;;;;;;;;;;5029201;28;19925;-63
2024/02/06 05:50:24;;;;;;;;;;;;;;;;;;5032739;28;20294;-63
2024/02/06 05:52:49;;;;;;;;;;;;;;;;;;5028046;28;19952;-63
2024/02/06 05:55:15;;;;;;;;;;;;;;;;;;5029806;28;19929;-63
2024/02/06 05:57:41;;;;;;;;;;;;;;;;;;5028794;28;19928;-63
2024/02/06 06:00:07;;;;;;;;;;;;;;;;;;5028806;28;19936;-63
2024/02/06 06:02:33;;;;;;;;;;;;;;;;;;5031534;28;20007;-63
2024/02/06 06:04:59;;;;;;;;;;;;;;;;;;5024710;28;20020;-63
2024/02/06 06:07:25;;;;;;;;;;;;;;;;;;5034476;28;19928;-64
2024/02/06 06:09:51;;;;;;;;;;;;;;;;;;5034905;28;19933;-64
2024/02/06 06:12:17;;;;;;;;;;;;;;;;;;5024566;28;19922;-64
2024/02/06 06:14:43;;;;;;;;;;;;;;;;;;5023681;28;19971;-64
2024/02/06 06:17:09;;;;;;;;;;;;;;;;;;5027463;28;19953;-64
2024/02/06 06:19:35;;;;;;;;;;;;;;;;;;5034597;28;19959;-64
2024/02/06 06:22:07;;;;;;;;;;;;;;;;;;5031853;28;20386;-64
2024/02/06 06:24:33;;;;;;;;;;;;;;;;;;5034607;28;19925;-64
2024/02/06 06:26:59;;;;;;;;;;;;;;;;;;5034351;28;20016;-64
2024/02/06 06:29:25;;;;;;;;;;;;;;;;;;5033698;28;20007;-64
2024/02/06 06:31:51;;;;;;;;;;;;;;;;;;5035021;28;20015;-64
2024/02/06 06:34:17;;;;;;;;;;;;;;;;;;5033958;28;19921;-64
2024/02/06 06:36:43;;;;;;;;;;;;;;;;;;5032158;28;21255;-64
2024/02/06 06:39:11;;;;;;;;;;;;;;;;;;5033489;28;19934;-64
2024/02/06 06:41:37;;;;;;;;;;;;;;;;;;5015141;28;19976;-64
2024/02/06 06:44:03;;;;;;;;;;;;;;;;;;5016846;28;19961;-64
2024/02/06 06:46:29;;;;;;;;;;;;;;;;;;5018744;28;20267;-64
2024/02/06 06:48:54;;;;;;;;;;;;;;;;;;5015640;28;19936;-64
2024/02/06 06:51:21;;;;;;;;;;;;;;;;;;5018009;28;19950;-64
2024/02/06 06:53:47;;;;;;;;;;;;;;;;;;5014055;28;20004;-63
2024/02/06 06:56:12;;;;;;;;;;;;;;;;;;4998041;28;20396;-64
2024/02/06 06:58:38;;;;;;;;;;;;;;;;;;5013666;28;19974;-64
2024/02/06 07:01:05;;;;;;;;;;;;;;;;;;5006479;28;19955;-64
2024/02/06 07:03:33;;;;;;;;;;;;;;;;;;5014186;28;20302;-64
2024/02/06 07:05:59;;;;;;;;;;;;;;;;;;5003246;28;20363;-64
2024/02/06 07:08:25;;;;;;;;;;;;;;;;;;5018176;28;19925;-64
2024/02/06 07:10:51;;;;;;;;;;;;;;;;;;5012433;28;19927;-64
2024/02/06 07:13:17;;;;;;;;;;;;;;;;;;5015205;28;19944;-63
2024/02/06 07:15:43;;;;;;;;;;;;;;;;;;5015212;28;19921;-63
2024/02/06 07:18:09;;;;;;;;;;;;;;;;;;5014513;28;19976;-64
2024/02/06 07:20:35;;;;;;;;;;;;;;;;;;5013735;28;19976;-63
2024/02/06 07:23:01;;;;;;;;;;;;;;;;;;5014398;28;19972;-64
2024/02/06 07:25:27;;;;;;;;;;;;;;;;;;5015812;28;19972;-64
2024/02/06 07:27:53;;;;;;;;;;;;;;;;;;5014252;28;20205;-63
2024/02/06 07:30:19;;;;;;;;;;;;;;;;;;5013676;28;19925;-64
2024/02/06 07:32:45;;;;;;;;;;;;;;;;;;5017112;28;19940;-64
2024/02/06 07:35:12;;;;;;;;;;;;;;;;;;5017609;28;20256;-63
2024/02/06 07:37:38;;;;;;;;;;;;;;;;;;5012909;28;20413;-63
2024/02/06 07:40:04;;;;;;;;;;;;;;;;;;5013828;28;19929;-62
2024/02/06 07:42:30;;;;;;;;;;;;;;;;;;5014611;28;19932;-63
2024/02/06 07:44:55;;;;;;;;;;;;;;;;;;5014298;28;19968;-63
2024/02/06 07:47:21;;;;;;;;;;;;;;;;;;4996811;28;20062;-63
2024/02/06 07:49:47;;;;;;;;;;;;;;;;;;4996616;28;20012;-63
2024/02/06 07:52:13;;;;;;;;;;;;;;;;;;5013841;28;20028;-63
2024/02/06 07:54:39;;;;;;;;;;;;;;;;;;5005241;28;19968;-62
2024/02/06 07:57:06;;;;;;;;;;;;;;;;;;5004408;28;19929;-62
2024/02/06 07:59:32;;;;;;;;;;;;;;;;;;5005012;28;20044;-63
2024/02/06 08:01:57;;;;;;;;;;;;;;;;;;5008290;28;20017;-63
2024/02/06 08:04:23;;;;;;;;;;;;;;;;;;5000741;28;20012;-63
2024/02/06 08:06:49;;;;;;;;;;;;;;;;;;5014177;28;20293;-63
2024/02/06 08:09:18;;;;;;;;;;;;;;;;;;5013730;28;19928;-63
2024/02/06 08:11:44;;;;;;;;;;;;;;;;;;5014193;28;19926;-63
2024/02/06 08:14:09;;;;;;;;;;;;;;;;;;5001326;28;20387;-63
2024/02/06 08:16:35;;;;;;;;;;;;;;;;;;5009248;28;19921;-62
2024/02/06 08:19:03;;;;;;;;;;;;;;;;;;5011557;28;19932;-62
2024/02/06 08:21:29;;;;;;;;;;;;;;;;;;5012579;28;19992;-62
2024/02/06 08:23:55;;;;;;;;;;;;;;;;;;5010540;28;19963;-62
2024/02/06 08:26:21;;;;;;;;;;;;;;;;;;4994599;28;20340;-63
2024/02/06 08:28:47;;;;;;;;;;;;;;;;;;5012334;28;19955;-62
2024/02/06 08:31:13;;;;;;;;;;;;;;;;;;5011904;28;20358;-62
2024/02/06 08:33:39;;;;;;;;;;;;;;;;;;4996216;28;19925;-62
2024/02/06 08:36:05;;;;;;;;;;;;;;;;;;5017102;28;19921;-64
2024/02/06 08:38:31;;;;;;;;;;;;;;;;;;5010911;28;19967;-63
2024/02/06 08:40:57;;;;;;;;;;;;;;;;;;5036125;28;19979;-63
2024/02/06 08:43:23;;;;;;;;;;;;;;;;;;5032087;28;20067;-63
2024/02/06 08:45:49;;;;;;;;;;;;;;;;;;5029983;28;20020;-63
2024/02/06 08:48:15;;;;;;;;;;;;;;;;;;5032770;28;19944;-63
2024/02/06 08:50:42;;;;;;;;;;;;;;;;;;5031395;28;20379;-63
2024/02/06 08:53:09;;;;;;;;;;;;;;;;;;5029058;28;20055;-63
2024/02/06 08:55:35;;;;;;;;;;;;;;;;;;5022043;28;19976;-63
2024/02/06 08:58:01;;;;;;;;;;;;;;;;;;5021851;28;20012;-63
2024/02/06 09:00:27;;;;;;;;;;;;;;;;;;5030332;28;19925;-63
2024/02/06 09:02:53;;;;;;;;;;;;;;;;;;5033314;28;19948;-63
2024/02/06 09:05:19;;;;;;;;;;;;;;;;;;5032830;28;20011;-63
2024/02/06 09:07:45;;;;;;;;;;;;;;;;;;5032153;28;19936;-63
2024/02/06 09:10:11;;;;;;;;;;;;;;;;;;5031224;28;19922;-63
2024/02/06 09:12:37;;;;;;;;;;;;;;;;;;5028927;28;19937;-63
2024/02/06 09:15:02;;;;;;;;;;;;;;;;;;5032344;28;19921;-63
2024/02/06 09:17:29;;;;;;;;;;;;;;;;;;5031036;28;20286;-63
2024/02/06 09:19:55;;;;;;;;;;;;;;;;;;5033286;28;19929;-63
2024/02/06 09:22:21;;;;;;;;;;;;;;;;;;5031838;28;19932;-63
2024/02/06 09:24:47;;;;;;;;;;;;;;;;;;5021594;28;20012;-63
2024/02/06 09:27:13;;;;;;;;;;;;;;;;;;5023768;28;20449;-63
2024/02/06 09:29:38;;;;;;;;;;;;;;;;;;5033255;28;20019;-63
2024/02/06 09:32:04;;;;;;;;;;;;;;;;;;5029889;28;19932;-64
2024/02/06 09:34:30;;;;;;;;;;;;;;;;;;5027305;28;19920;-63
2024/02/06 09:36:56;;;;;;;;;;;;;;;;;;5030976;28;20374;-64
2024/02/06 09:39:22;;;;;;;;;;;;;;;;;;5032894;28;20439;-64
2024/02/06 09:41:49;;;;;;;;;;;;;;;;;;4999166;28;19922;-64
2024/02/06 09:44:15;;;;;;;;;;;;;;;;;;5016414;28;20462;-64
2024/02/06 09:46:41;;;;;;;;;;;;;;;;;;5015249;28;19921;-64
2024/02/06 09:49:07;;;;;;;;;;;;;;;;;;5016923;28;20340;-64
2024/02/06 09:51:37;;;;;;;;;;;;;;;;;;4990683;28;19921;-63
2024/02/06 09:54:04;;;;;;;;;;;;;;;;;;4994847;28;20383;-64
2024/02/06 09:56:30;;;;;;;;;;;;;;;;;;4980709;28;19921;-64
2024/02/06 09:58:57;;;;;;;;;;;;;;;;;;4998489;28;19929;-64
2024/02/06 10:01:23;;;;;;;;;;;;;;;;;;4997318;28;19929;-64
2024/02/06 10:03:52;;;;;;;;;;;;;;;;;;4997066;28;19922;-64
2024/02/06 10:06:18;;;;;;;;;;;;;;;;;;4997256;28;19929;-64
2024/02/06 10:08:44;;;;;;;;;;;;;;;;;;5010032;28;19922;-64
2024/02/06 10:11:10;;;;;;;;;;;;;;;;;;5002556;28;19922;-64
2024/02/06 10:13:36;;;;;;;;;;;;;;;;;;4993818;28;19976;-64
2024/02/06 10:16:02;;;;;;;;;;;;;;;;;;5013294;28;19948;-64
2024/02/06 10:18:28;;;;;;;;;;;;;;;;;;5004691;28;19925;-64
2024/02/06 10:20:54;;;;;;;;;;;;;;;;;;4998043;28;19936;-64
2024/02/06 10:23:20;;;;;;;;;;;;;;;;;;5015400;28;19921;-63
2024/02/06 10:25:46;;;;;;;;;;;;;;;;;;5017122;28;19922;-63
2024/02/06 10:28:12;;;;;;;;;;;;;;;;;;4994336;28;19921;-63
2024/02/06 10:30:37;;;;;;;;;;;;;;;;;;5005456;28;19933;-63
2024/02/06 10:33:04;;;;;;;;;;;;;;;;;;4996515;28;19922;-64
2024/02/06 10:35:31;;;;;;;;;;;;;;;;;;4996446;28;19922;-63
2024/02/06 10:37:57;;;;;;;;;;;;;;;;;;4996195;28;20450;-63
2024/02/06 10:40:23;;;;;;;;;;;;;;;;;;4999647;28;19960;-64
2024/02/06 10:42:49;;;;;;;;;;;;;;;;;;5020439;28;19930;-64
2024/02/06 10:45:15;;;;;;;;;;;;;;;;;;5017312;28;20360;-63
2024/02/06 10:47:42;;;;;;;;;;;;;;;;;;5020590;28;20008;-63
2024/02/06 10:50:10;;;;;;;;;;;;;;;;;;5035737;28;19925;-64
2024/02/06 10:52:36;;;;;;;;;;;;;;;;;;5033051;28;19921;-64
2024/02/06 10:55:03;;;;;;;;;;;;;;;;;;5031883;28;19972;-64
2024/02/06 10:57:29;;;;;;;;;;;;;;;;;;5022019;28;20376;-64
2024/02/06 10:59:55;;;;;;;;;;;;;;;;;;5013913;28;20403;-64
2024/02/06 11:02:21;;;;;;;;;;;;;;;;;;5008304;28;20007;-64
2024/02/06 11:04:47;;;;;;;;;;;;;;;;;;5022409;28;20079;-64
2024/02/06 11:07:13;;;;;;;;;;;;;;;;;;5005391;28;19957;-65
2024/02/06 11:09:38;;;;;;;;;;;;;;;;;;5034104;28;20474;-65
2024/02/06 11:12:05;;;;;;;;;;;;;;;;;;5022505;28;19925;-65
2024/02/06 11:14:31;;;;;;;;;;;;;;;;;;5017090;28;19935;-65
2024/02/06 11:16:57;;;;;;;;;;;;;;;;;;5031460;28;20360;-64
2024/02/06 11:19:25;;;;;;;;;;;;;;;;;;5031388;28;19925;-65
2024/02/06 11:21:51;;;;;;;;;;;;;;;;;;5032670;28;19928;-65
2024/02/06 11:24:17;;;;;;;;;;;;;;;;;;5031608;28;19921;-65
2024/02/06 11:26:43;;;;;;;;;;;;;;;;;;5029948;28;20329;-64
2024/02/06 11:29:09;;;;;;;;;;;;;;;;;;5030133;28;19937;-64
2024/02/06 11:31:35;;;;;;;;;;;;;;;;;;5033201;28;20393;-65
2024/02/06 11:34:00;;;;;;;;;;;;;;;;;;5030868;28;19925;-65
2024/02/06 11:36:26;;;;;;;;;;;;;;;;;;5032038;28;19921;-64
2024/02/06 11:38:53;;;;;;;;;;;;;;;;;;5031101;28;19971;-64
2024/02/06 11:41:19;;;;;;;;;;;;;;;;;;5032581;28;19925;-64
2024/02/06 11:43:47;;;;;;;;;;;;;;;;;;5031993;28;19925;-64
2024/02/06 11:46:13;;;;;;;;;;;;;;;;;;5028764;28;19921;-64
2024/02/06 11:48:42;;;;;;;;;;;;;;;;;;5031465;28;20370;-64
2024/02/06 11:51:08;;;;;;;;;;;;;;;;;;5028936;28;19921;-64
2024/02/06 11:53:34;;;;;;;;;;;;;;;;;;5031787;28;19939;-64
2024/02/06 11:56:03;;;;;;;;;;;;;;;;;;5014170;28;20637;-64
2024/02/06 11:58:35;;;;;;;;;;;;;;;;;;5030196;28;19932;-64
2024/02/06 12:01:04;;;;;;;;;;;;;;;;;;5030934;28;20387;-64
2024/02/06 12:03:30;;;;;;;;;;;;;;;;;;5027868;28;19921;-64
2024/02/06 12:05:56;;;;;;;;;;;;;;;;;;5030534;28;19925;-64
2024/02/06 12:08:24;;;;;;;;;;;;;;;;;;5029833;28;19921;-64
2024/02/06 12:10:50;;;;;;;;;;;;;;;;;;5028154;28;19925;-64
2024/02/06 12:13:17;;;;;;;;;;;;;;;;;;5031182;28;19925;-64
2024/02/06 12:15:43;;;;;;;;;;;;;;;;;;5025038;28;20441;-64
2024/02/06 12:18:10;;;;;;;;;;;;;;;;;;5021132;28;19922;-64
2024/02/06 12:20:36;;;;;;;;;;;;;;;;;;5024324;28;20451;-64
2024/02/06 12:23:03;;;;;;;;;;;;;;;;;;5029336;28;19976;-64
2024/02/06 12:25:29;;;;;;;;;;;;;;;;;;5028461;28;19921;-64
2024/02/06 12:27:55;;;;;;;;;;;;;;;;;;5023542;28;19937;-64
2024/02/06 12:30:21;;;;;;;;;;;;;;;;;;5019684;28;19982;-64
2024/02/06 12:32:46;;;;;;;;;;;;;;;;;;5030831;28;20387;-64
2024/02/06 12:35:12;;;;;;;;;;;;;;;;;;5028385;28;19921;-64
2024/02/06 12:37:38;;;;;;;;;;;;;;;;;;5028591;28;19932;-64
2024/02/06 12:40:04;;;;;;;;;;;;;;;;;;5030199;28;19951;-67
2024/02/06 12:42:30;;;;;;;;;;;;;;;;;;5005831;28;19921;-64
2024/02/06 12:44:56;;;;;;;;;;;;;;;;;;5029767;28;19965;-64
2024/02/06 12:47:22;;;;;;;;;;;;;;;;;;5028726;28;19925;-64
2024/02/06 12:49:48;;;;;;;;;;;;;;;;;;5031926;28;19971;-64
2024/02/06 12:52:14;;;;;;;;;;;;;;;;;;5030562;28;19956;-64
2024/02/06 12:54:41;;;;;;;;;;;;;;;;;;5030819;28;19932;-64
2024/02/06 12:57:07;;;;;;;;;;;;;;;;;;5030697;28;19960;-64
2024/02/06 12:59:33;;;;;;;;;;;;;;;;;;5016800;28;19977;-64
2024/02/06 13:01:59;;;;;;;;;;;;;;;;;;5029841;28;19925;-64
2024/02/06 13:04:25;;;;;;;;;;;;;;;;;;5030958;28;19925;-64
2024/02/06 13:06:51;;;;;;;;;;;;;;;;;;5029935;28;19921;-64
2024/02/06 13:09:17;;;;;;;;;;;;;;;;;;5030548;28;19928;-64
2024/02/06 13:11:43;;;;;;;;;;;;;;;;;;5030228;28;19944;-64
2024/02/06 13:14:09;;;;;;;;;;;;;;;;;;5027849;28;20367;-64
2024/02/06 13:16:36;;;;;;;;;;;;;;;;;;5028080;28;19928;-64
2024/02/06 13:19:02;;;;;;;;;;;;;;;;;;5030568;28;20355;-64
2024/02/06 13:21:28;;;;;;;;;;;;;;;;;;5028530;28;19968;-64
2024/02/06 13:23:54;;;;;;;;;;;;;;;;;;5030949;28;19931;-64
2024/02/06 13:26:22;;;;;;;;;;;;;;;;;;5026045;28;19925;-64
2024/02/06 13:28:48;;;;;;;;;;;;;;;;;;5021920;28;19925;-64
2024/02/06 13:31:14;;;;;;;;;;;;;;;;;;5029994;28;19948;-64
2024/02/06 13:33:39;;;;;;;;;;;;;;;;;;5006410;28;19926;-64
2024/02/06 13:36:05;;;;;;;;;;;;;;;;;;5028885;28;19922;-64
2024/02/06 13:38:31;;;;;;;;;;;;;;;;;;5030465;28;19978;-65
2024/02/06 13:40:57;;;;;;;;;;;;;;;;;;5027381;28;20424;-64
2024/02/06 13:43:23;;;;;;;;;;;;;;;;;;5027720;28;19928;-65
2024/02/06 13:45:50;;;;;;;;;;;;;;;;;;5028345;28;19921;-65
2024/02/06 13:48:16;;;;;;;;;;;;;;;;;;5027454;28;19925;-64
2024/02/06 13:50:42;;;;;;;;;;;;;;;;;;5023591;28;19936;-64
2024/02/06 13:53:08;;;;;;;;;;;;;;;;;;5028941;28;20035;-65
2024/02/06 13:55:34;;;;;;;;;;;;;;;;;;5029418;28;20040;-65
2024/02/06 13:57:59;;;;;;;;;;;;;;;;;;5027259;28;20413;-65
2024/02/06 14:00:25;;;;;;;;;;;;;;;;;;5028828;28;20008;-65
2024/02/06 14:02:52;;;;;;;;;;;;;;;;;;5029441;28;19921;-65
2024/02/06 14:05:18;;;;;;;;;;;;;;;;;;5027570;28;19921;-65
2024/02/06 14:07:44;;;;;;;;;;;;;;;;;;5028815;28;19932;-65
2024/02/06 14:10:10;;;;;;;;;;;;;;;;;;5028605;28;19948;-65
2024/02/06 14:12:36;;;;;;;;;;;;;;;;;;5029588;28;19952;-64
2024/02/06 14:15:04;;;;;;;;;;;;;;;;;;5028515;28;19928;-64
2024/02/06 14:17:29;;;;;;;;;;;;;;;;;;5026886;28;19929;-64
2024/02/06 14:19:56;;;;;;;;;;;;;;;;;;5031306;28;19952;-64
2024/02/06 14:22:22;;;;;;;;;;;;;;;;;;5032719;28;20287;-64
2024/02/06 14:24:47;;;;;;;;;;;;;;;;;;5033056;28;19925;-64
2024/02/06 14:27:13;;;;;;;;;;;;;;;;;;5032859;28;19928;-64
2024/02/06 14:29:39;;;;;;;;;;;;;;;;;;5031449;28;19928;-64
2024/02/06 14:32:05;;;;;;;;;;;;;;;;;;5032126;28;19932;-64
2024/02/06 14:34:31;;;;;;;;;;;;;;;;;;5030987;28;19925;-64
2024/02/06 14:37:00;;;;;;;;;;;;;;;;;;5029705;28;19921;-64
2024/02/06 14:39:26;;;;;;;;;;;;;;;;;;5030629;28;20268;-64
2024/02/06 14:41:52;;;;;;;;;;;;;;;;;;5023003;28;19944;-65
2024/02/06 14:44:18;;;;;;;;;;;;;;;;;;5026461;28;19925;-65
2024/02/06 14:46:43;;;;;;;;;;;;;;;;;;5032178;28;19921;-65
2024/02/06 14:49:09;;;;;;;;;;;;;;;;;;5028067;28;19932;-65
2024/02/06 14:51:35;;;;;;;;;;;;;;;;;;5029453;28;19936;-66
2024/02/06 14:54:01;;;;;;;;;;;;;;;;;;5024078;28;19925;-65
2024/02/06 14:56:27;;;;;;;;;;;;;;;;;;5027408;28;19921;-65
2024/02/06 14:58:53;;;;;;;;;;;;;;;;;;5027059;28;21791;-65
2024/02/06 15:01:19;;;;;;;;;;;;;;;;;;5028838;28;20379;-65
2024/02/06 15:03:46;;;;;;;;;;;;;;;;;;5027494;28;19931;-65
2024/02/06 15:06:12;;;;;;;;;;;;;;;;;;5033107;28;20270;-65
2024/02/06 15:08:40;;;;;;;;;;;;;;;;;;5022806;28;19925;-65
2024/02/06 15:11:06;;;;;;;;;;;;;;;;;;5033282;28;19921;-65
2024/02/06 15:13:32;;;;;;;;;;;;;;;;;;5031504;28;20350;-65
2024/02/06 15:15:58;;;;;;;;;;;;;;;;;;5026946;28;19921;-65
2024/02/06 15:18:24;;;;;;;;;;;;;;;;;;5022373;28;19922;-65
2024/02/06 15:20:50;;;;;;;;;;;;;;;;;;5026885;28;19929;-65
2024/02/06 15:23:16;;;;;;;;;;;;;;;;;;5024539;28;20693;-65
2024/02/06 15:25:42;;;;;;;;;;;;;;;;;;5031900;28;20000;-65
2024/02/06 15:28:09;;;;;;;;;;;;;;;;;;5025266;28;19968;-65
2024/02/06 15:30:35;;;;;;;;;;;;;;;;;;5027103;28;19967;-65
2024/02/06 15:33:01;;;;;;;;;;;;;;;;;;5027926;28;20364;-66
2024/02/06 15:35:29;;;;;;;;;;;;;;;;;;5029575;28;20448;-65
2024/02/06 15:37:54;;;;;;;;;;;;;;;;;;5024855;28;20299;-65
2024/02/06 15:40:20;;;;;;;;;;;;;;;;;;5027510;28;19929;-65
2024/02/06 15:42:46;;;;;;;;;;;;;;;;;;5032644;28;19924;-64
2024/02/06 15:45:12;;;;;;;;;;;;;;;;;;5017961;28;19936;-64
2024/02/06 15:47:38;;;;;;;;;;;;;;;;;;5028129;28;19921;-64
2024/02/06 15:50:04;;;;;;;;;;;;;;;;;;5015667;28;19936;-64
2024/02/06 15:52:30;;;;;;;;;;;;;;;;;;5012361;28;19968;-64
2024/02/06 15:54:57;;;;;;;;;;;;;;;;;;5055018;22;20390;-64
2024/02/06 15:57:23;;;;;;;;;;;;;;;;;;5008036;28;19930;-65
2024/02/06 15:59:49;;;;;;;;;;;;;;;;;;5007945;28;20413;-65
2024/02/06 16:02:15;;;;;;;;;;;;;;;;;;5007864;28;19929;-65
2024/02/06 16:04:41;;;;;;;;;;;;;;;;;;5000708;28;20546;-65
2024/02/06 16:07:07;;;;;;;;;;;;;;;;;;5003420;28;19948;-66
2024/02/06 16:09:33;;;;;;;;;;;;;;;;;;5003289;28;19925;-66
2024/02/06 16:11:59;;;;;;;;;;;;;;;;;;5005845;28;20008;-66
2024/02/06 16:14:25;;;;;;;;;;;;;;;;;;5005332;28;20327;-66
2024/02/06 16:16:51;;;;;;;;;;;;;;;;;;5013135;28;19929;-66
2024/02/06 16:19:17;;;;;;;;;;;;;;;;;;5010154;28;19925;-66
2024/02/06 16:21:43;;;;;;;;;;;;;;;;;;5008464;28;20405;-67
2024/02/06 16:24:09;;;;;;;;;;;;;;;;;;5010145;28;19925;-66
2024/02/06 16:26:35;;;;;;;;;;;;;;;;;;5008797;28;19922;-66
2024/02/06 16:29:01;;;;;;;;;;;;;;;;;;5006160;28;20737;-67
2024/02/06 16:31:27;;;;;;;;;;;;;;;;;;4991143;28;20287;-66
2024/02/06 16:33:53;;;;;;;;;;;;;;;;;;5009865;28;19925;-66
2024/02/06 16:36:19;;;;;;;;;;;;;;;;;;4992394;28;19933;-64
2024/02/06 16:38:45;;;;;;;;;;;;;;;;;;5009637;28;19925;-65